createdAt,value
2023-05-07T00:01:33.036Z,12.65
2023-05-07T00:06:34.730Z,14.80
2023-05-07T00:11:37.319Z,14.48
2023-05-07T00:16:39.129Z,15.98
2023-05-07T00:21:40.790Z,15.82
2023-05-07T00:26:42.584Z,14.98
2023-05-07T00:31:44.245Z,13.75
2023-05-07T00:36:46.022Z,15.95
2023-05-07T00:41:48.309Z,14.48
2023-05-07T00:46:50.977Z,14.20
2023-05-07T00:51:52.800Z,14.23
2023-05-07T00:56:55.450Z,14.27
2023-05-07T01:01:57.053Z,15.98
2023-05-07T01:07:01.287Z,15.57
2023-05-07T01:12:04.399Z,17.35
2023-05-07T01:17:06.361Z,17.02
2023-05-07T01:22:16.218Z,18.70
2023-05-07T01:27:24.282Z,17.83
2023-05-07T01:32:35.169Z,18.80
2023-05-07T01:37:38.022Z,21.00
2023-05-07T01:42:40.598Z,18.33
2023-05-07T01:47:43.837Z,21.52
2023-05-07T01:52:45.548Z,18.08
2023-05-07T01:57:47.161Z,19.50
2023-05-07T02:02:49.043Z,17.75
2023-05-07T02:14:25.065Z,15.23
2023-05-07T02:19:26.690Z,16.42
2023-05-07T02:24:29.713Z,17.58
2023-05-07T02:29:32.131Z,15.63
2023-05-07T02:34:33.978Z,16.42
2023-05-07T02:39:35.955Z,15.82
2023-05-07T02:44:37.609Z,15.38
2023-05-07T02:49:39.365Z,14.98
2023-05-07T02:54:43.267Z,13.85
2023-05-07T02:59:45.016Z,15.80
2023-05-07T03:04:48.404Z,16.23
2023-05-07T03:09:50.031Z,15.10
2023-05-07T03:14:51.785Z,14.50
2023-05-07T03:19:53.464Z,15.65
2023-05-07T03:24:55.391Z,14.43
2023-05-07T03:29:57.039Z,13.10
2023-05-07T03:34:58.917Z,13.07
2023-05-07T03:40:01.061Z,11.05
2023-05-07T03:45:03.451Z,10.43
2023-05-07T03:50:06.179Z,9.02
2023-05-07T03:55:08.604Z,9.68
2023-05-07T04:00:13.547Z,8.77
2023-05-07T04:05:24.650Z,7.30
2023-05-07T04:10:31.071Z,8.15
2023-05-07T04:15:34.260Z,9.10
2023-05-07T04:20:37.682Z,8.35
2023-05-07T04:25:42.667Z,8.30
2023-05-07T04:30:56.732Z,8.45
2023-05-07T04:36:03.764Z,8.93
2023-05-07T04:41:07.896Z,9.05
2023-05-07T04:46:14.155Z,9.27
2023-05-07T04:51:17.554Z,10.02
2023-05-07T04:56:19.440Z,10.85
2023-05-07T05:01:22.735Z,10.57
2023-05-07T05:06:24.514Z,11.75
2023-05-07T05:11:27.289Z,11.82
2023-05-07T05:16:29.587Z,11.63
2023-05-07T05:21:32.941Z,11.95
2023-05-07T05:26:40.398Z,10.88
2023-05-07T05:31:43.027Z,11.40
2023-05-07T05:36:45.803Z,9.32
2023-05-07T05:41:49.043Z,9.77
2023-05-07T05:46:51.673Z,10.98
2023-05-07T05:51:53.778Z,11.63
2023-05-07T05:56:56.827Z,11.88
2023-05-07T06:01:59.904Z,11.38
2023-05-07T06:07:01.573Z,10.38
2023-05-07T06:12:03.544Z,9.88
2023-05-07T06:17:06.572Z,10.00
2023-05-07T06:22:08.496Z,10.70
2023-05-07T06:27:10.809Z,9.63
2023-05-07T06:32:14.693Z,9.43
2023-05-07T06:37:18.482Z,8.25
2023-05-07T06:42:28.296Z,8.07
2023-05-07T06:47:34.498Z,7.90
2023-05-07T06:52:36.899Z,6.65
2023-05-07T06:57:40.889Z,7.43
2023-05-07T07:02:43.087Z,6.53
2023-05-07T07:07:45.886Z,5.82
2023-05-07T07:12:47.897Z,5.85
2023-05-07T07:17:50.118Z,6.30
2023-05-07T07:22:52.083Z,5.57
2023-05-07T07:27:53.710Z,5.75
2023-05-07T07:33:01.626Z,5.53
2023-05-07T07:38:03.637Z,6.03
2023-05-07T07:43:06.015Z,6.85
2023-05-07T07:48:08.175Z,6.95
2023-05-07T07:53:12.781Z,7.60
2023-05-07T07:58:14.593Z,6.95
2023-05-07T08:03:17.871Z,6.63
2023-05-07T08:08:23.733Z,5.57
2023-05-07T08:13:26.367Z,4.95
2023-05-07T08:18:29.993Z,5.50
2023-05-07T08:23:35.573Z,4.30
2023-05-07T08:28:38.428Z,4.78
2023-05-07T08:33:40.108Z,4.57
2023-05-07T08:38:43.879Z,3.70
2023-05-07T08:43:52.065Z,4.13
2023-05-07T08:48:54.321Z,5.13
2023-05-07T08:53:56.046Z,3.38
2023-05-07T08:59:02.665Z,3.95
2023-05-07T09:04:06.785Z,3.75
2023-05-07T09:09:09.535Z,3.45
2023-05-07T09:14:11.335Z,3.53
2023-05-07T09:19:16.436Z,3.97
2023-05-07T09:24:21.026Z,3.75
2023-05-07T09:29:23.178Z,4.10
2023-05-07T09:34:25.698Z,4.97
2023-05-07T09:39:39.149Z,4.85
2023-05-07T09:44:41.501Z,4.60
2023-05-07T09:49:51.829Z,5.03
2023-05-07T09:55:00.283Z,5.63
2023-05-07T10:00:07.294Z,6.18
2023-05-07T10:05:26.230Z,6.13
2023-05-07T10:10:31.930Z,5.70
2023-05-07T10:15:34.486Z,4.65
2023-05-07T10:20:38.237Z,4.75
2023-05-07T10:25:42.618Z,4.03
2023-05-07T10:31:02.062Z,4.88
2023-05-07T10:36:10.658Z,4.72
2023-05-07T10:41:12.860Z,4.85
2023-05-07T10:46:22.098Z,5.15
2023-05-07T10:51:34.536Z,6.15
2023-05-07T10:56:44.770Z,4.85
2023-05-07T11:02:09.082Z,5.80
2023-05-07T11:07:29.205Z,5.35
2023-05-07T11:12:39.659Z,4.85
2023-05-07T11:18:00.957Z,5.10
2023-05-07T11:23:08.386Z,6.20
2023-05-07T11:28:20.582Z,6.40
2023-05-07T11:33:31.395Z,6.35
2023-05-07T11:38:38.606Z,5.82
2023-05-07T11:43:55.450Z,5.63
2023-05-07T11:48:57.733Z,4.53
2023-05-07T11:53:59.342Z,4.50
2023-05-07T11:59:01.090Z,4.63
2023-05-07T12:04:04.383Z,4.70
2023-05-07T12:09:08.494Z,4.15
2023-05-07T12:14:12.229Z,4.10
2023-05-07T12:19:16.053Z,4.43
2023-05-07T12:24:17.812Z,4.32
2023-05-07T12:29:23.800Z,4.47
2023-05-07T12:34:25.591Z,4.88
2023-05-07T12:39:27.223Z,5.05
2023-05-07T12:44:35.937Z,4.75
2023-05-07T12:49:41.185Z,5.35
2023-05-07T12:54:42.905Z,5.75
2023-05-07T12:59:44.538Z,5.85
2023-05-07T13:04:46.142Z,5.40
2023-05-07T13:09:49.232Z,4.57
2023-05-07T13:14:51.030Z,4.03
2023-05-07T13:19:52.704Z,5.22
2023-05-07T13:24:54.345Z,5.38
2023-05-07T13:29:55.980Z,4.47
2023-05-07T13:34:57.767Z,4.50
2023-05-07T13:39:59.396Z,4.90
2023-05-07T13:45:01.756Z,4.47
2023-05-07T13:50:03.446Z,4.70
2023-05-07T13:55:05.609Z,4.85
2023-05-07T14:00:07.785Z,4.63
2023-05-07T14:05:16.573Z,4.30
2023-05-07T14:10:19.728Z,4.28
2023-05-07T14:15:21.555Z,4.70
2023-05-07T14:20:23.161Z,4.40
2023-05-07T14:25:24.812Z,4.85
2023-05-07T14:30:27.222Z,4.28
2023-05-07T14:35:28.884Z,3.65
2023-05-07T14:40:30.588Z,3.85
2023-05-07T14:45:32.220Z,3.53
2023-05-07T14:50:33.856Z,3.05
2023-05-07T14:55:36.029Z,3.10
2023-05-07T15:00:37.826Z,3.08
2023-05-07T15:05:39.431Z,2.63
2023-05-07T15:10:43.881Z,2.80
2023-05-07T15:15:45.960Z,3.40
2023-05-07T15:20:47.595Z,3.40
2023-05-07T15:25:52.152Z,3.67
2023-05-07T15:30:56.223Z,3.83
2023-05-07T15:35:59.932Z,4.07
2023-05-07T15:41:01.592Z,4.20
2023-05-07T15:46:03.229Z,5.32
2023-05-07T15:51:06.413Z,4.57
2023-05-07T15:56:08.449Z,4.82
2023-05-07T16:01:10.531Z,4.38
2023-05-07T16:06:12.702Z,4.57
2023-05-07T16:11:14.385Z,4.78
2023-05-07T16:16:16.058Z,4.15
2023-05-07T16:21:17.794Z,4.50
2023-05-07T16:26:19.413Z,4.75
2023-05-07T16:31:21.030Z,5.50
2023-05-07T16:36:22.901Z,4.65
2023-05-07T16:41:24.531Z,4.70
2023-05-07T16:46:26.530Z,4.50
2023-05-07T16:51:29.370Z,4.70
2023-05-07T16:56:31.145Z,4.72
2023-05-07T17:01:32.875Z,4.95
2023-05-07T17:06:34.613Z,4.78
2023-05-07T17:11:36.300Z,5.10
2023-05-07T17:16:37.968Z,5.55
2023-05-07T17:21:39.599Z,5.88
2023-05-07T17:26:43.169Z,5.40
2023-05-07T17:31:44.919Z,5.80
2023-05-07T17:36:46.610Z,5.50
2023-05-07T17:41:48.233Z,5.70
2023-05-07T17:46:50.017Z,5.13
2023-05-07T17:51:55.273Z,5.35
2023-05-07T17:56:57.328Z,5.68
2023-05-07T18:01:58.969Z,5.43
2023-05-07T18:07:00.792Z,5.65
2023-05-07T18:12:02.439Z,4.85
2023-05-07T18:17:04.038Z,5.68
2023-05-07T18:22:05.721Z,5.68
2023-05-07T18:27:07.432Z,4.75
2023-05-07T18:32:09.169Z,5.88
2023-05-07T18:37:10.817Z,6.03
2023-05-07T18:42:13.082Z,5.78
2023-05-07T18:47:14.692Z,6.00
2023-05-07T18:52:18.025Z,6.72
2023-05-07T18:57:19.618Z,5.68
2023-05-07T19:02:21.606Z,5.85
2023-05-07T19:07:23.230Z,5.43
2023-05-07T19:12:24.894Z,5.40
2023-05-07T19:17:26.530Z,5.55
2023-05-07T19:22:28.230Z,6.18
2023-05-07T19:27:29.834Z,6.15
2023-05-07T19:32:31.525Z,6.95
2023-05-07T19:37:33.186Z,7.03
2023-05-07T19:42:35.203Z,6.70
2023-05-07T19:47:36.857Z,6.90
2023-05-07T19:52:38.451Z,6.88
2023-05-07T19:57:40.076Z,7.75
2023-05-07T20:02:41.766Z,7.20
2023-05-07T20:07:46.257Z,7.53
2023-05-07T20:12:48.092Z,7.88
2023-05-07T20:17:49.819Z,7.35
2023-05-07T20:22:51.471Z,7.13
2023-05-07T20:27:53.099Z,7.03
2023-05-07T20:32:54.735Z,6.40
2023-05-07T20:37:56.804Z,6.13
2023-05-07T20:42:58.490Z,6.78
2023-05-07T20:48:00.251Z,6.55
2023-05-07T20:53:02.087Z,6.05
2023-05-07T20:58:03.693Z,6.47
2023-05-07T21:03:05.491Z,7.18
2023-05-07T21:08:07.157Z,8.18
2023-05-07T21:13:08.756Z,6.82
2023-05-07T21:18:11.394Z,7.43
2023-05-07T21:23:13.104Z,7.03
2023-05-07T21:28:14.713Z,5.82
2023-05-07T21:33:16.417Z,6.38
2023-05-07T21:38:18.878Z,5.72
2023-05-07T21:43:20.484Z,7.20
2023-05-07T21:48:22.379Z,6.22
2023-05-07T21:53:24.072Z,6.38
2023-05-07T21:58:29.458Z,5.72
2023-05-07T22:03:31.265Z,5.93
2023-05-07T22:08:32.952Z,5.20
2023-05-07T22:13:34.545Z,5.35
2023-05-07T22:18:36.209Z,4.80
2023-05-07T22:23:37.867Z,5.45
2023-05-07T22:28:40.623Z,5.40
2023-05-07T22:33:42.318Z,4.90
2023-05-07T22:38:43.952Z,5.20
2023-05-07T22:43:45.575Z,4.95
2023-05-07T22:48:47.178Z,4.93
2023-05-07T22:53:48.855Z,5.63
2023-05-07T22:58:50.517Z,4.85
2023-05-07T23:03:52.753Z,5.13
2023-05-07T23:08:54.884Z,5.15
2023-05-07T23:13:56.679Z,4.93
2023-05-07T23:18:58.821Z,5.65
2023-05-07T23:24:00.689Z,4.97
2023-05-07T23:29:02.430Z,5.60
2023-05-07T23:34:04.100Z,5.30
2023-05-07T23:39:05.756Z,6.00
2023-05-07T23:44:07.386Z,5.47
2023-05-07T23:49:08.983Z,5.85
2023-05-07T23:54:10.613Z,6.35
2023-05-07T23:59:13.450Z,5.55
